sensor_id;sensor_type;location;lat;lon;timestamp;P1;durP1;ratioP1;P2;durP2;ratioP2
69991;SDS011;57332;51.320;-0.580;2023-07-16T00:01:58;11.23;;;1.90;;
69991;SDS011;57332;51.320;-0.580;2023-07-16T00:04:25;6.63;;;1.85;;
69991;SDS011;57332;51.320;-0.580;2023-07-16T00:06:52;7.97;;;1.90;;
69991;SDS011;57332;51.320;-0.580;2023-07-16T00:09:19;10.55;;;2.05;;
69991;SDS011;57332;51.320;-0.580;2023-07-16T00:11:46;11.05;;;1.92;;
69991;SDS011;57332;51.320;-0.580;2023-07-16T00:14:13;7.28;;;2.03;;
69991;SDS011;57332;51.320;-0.580;2023-07-16T00:16:40;9.73;;;2.17;;
69991;SDS011;57332;51.320;-0.580;2023-07-16T00:19:07;7.10;;;1.90;;
69991;SDS011;57332;51.320;-0.580;2023-07-16T00:21:34;8.20;;;2.10;;
69991;SDS011;57332;51.320;-0.580;2023-07-16T00:24:00;7.07;;;2.05;;
69991;SDS011;57332;51.320;-0.580;2023-07-16T00:26:27;7.78;;;1.88;;
69991;SDS011;57332;51.320;-0.580;2023-07-16T00:28:54;8.52;;;2.03;;
69991;SDS011;57332;51.320;-0.580;2023-07-16T00:31:21;8.52;;;2.17;;
69991;SDS011;57332;51.320;-0.580;2023-07-16T00:33:48;9.30;;;1.83;;
69991;SDS011;57332;51.320;-0.580;2023-07-16T00:36:15;6.40;;;2.05;;
69991;SDS011;57332;51.320;-0.580;2023-07-16T00:38:42;11.98;;;2.22;;
69991;SDS011;57332;51.320;-0.580;2023-07-16T00:41:09;9.82;;;2.42;;
69991;SDS011;57332;51.320;-0.580;2023-07-16T00:43:36;8.18;;;2.05;;
69991;SDS011;57332;51.320;-0.580;2023-07-16T00:46:03;9.48;;;2.00;;
69991;SDS011;57332;51.320;-0.580;2023-07-16T00:48:30;6.75;;;2.40;;
69991;SDS011;57332;51.320;-0.580;2023-07-16T00:50:57;8.95;;;1.85;;
69991;SDS011;57332;51.320;-0.580;2023-07-16T00:53:26;10.05;;;2.35;;
69991;SDS011;57332;51.320;-0.580;2023-07-16T00:55:53;15.27;;;2.70;;
69991;SDS011;57332;51.320;-0.580;2023-07-16T00:58:20;9.52;;;2.40;;
69991;SDS011;57332;51.320;-0.580;2023-07-16T01:00:47;7.25;;;2.30;;
69991;SDS011;57332;51.320;-0.580;2023-07-16T01:03:14;9.05;;;2.05;;
69991;SDS011;57332;51.320;-0.580;2023-07-16T01:05:45;9.77;;;2.45;;
69991;SDS011;57332;51.320;-0.580;2023-07-16T01:08:14;9.13;;;1.88;;
69991;SDS011;57332;51.320;-0.580;2023-07-16T01:10:47;8.40;;;1.92;;
69991;SDS011;57332;51.320;-0.580;2023-07-16T01:13:14;7.82;;;1.98;;
69991;SDS011;57332;51.320;-0.580;2023-07-16T01:15:41;10.55;;;2.13;;
69991;SDS011;57332;51.320;-0.580;2023-07-16T01:18:08;6.28;;;2.80;;
69991;SDS011;57332;51.320;-0.580;2023-07-16T01:20:35;10.35;;;1.90;;
69991;SDS011;57332;51.320;-0.580;2023-07-16T01:23:12;6.80;;;2.10;;
69991;SDS011;57332;51.320;-0.580;2023-07-16T01:30:55;8.52;;;2.00;;
69991;SDS011;57332;51.320;-0.580;2023-07-16T01:33:25;7.60;;;2.17;;
69991;SDS011;57332;51.320;-0.580;2023-07-16T01:35:52;9.00;;;2.72;;
69991;SDS011;57332;51.320;-0.580;2023-07-16T01:38:19;10.98;;;2.25;;
69991;SDS011;57332;51.320;-0.580;2023-07-16T01:40:47;9.82;;;1.90;;
69991;SDS011;57332;51.320;-0.580;2023-07-16T01:43:14;6.07;;;2.33;;
69991;SDS011;57332;51.320;-0.580;2023-07-16T01:45:41;12.55;;;2.42;;
69991;SDS011;57332;51.320;-0.580;2023-07-16T01:50:54;8.50;;;2.03;;
69991;SDS011;57332;51.320;-0.580;2023-07-16T01:53:21;9.35;;;2.10;;
69991;SDS011;57332;51.320;-0.580;2023-07-16T01:55:48;8.48;;;2.28;;
69991;SDS011;57332;51.320;-0.580;2023-07-16T01:58:14;7.28;;;1.77;;
69991;SDS011;57332;51.320;-0.580;2023-07-16T02:00:41;9.13;;;2.08;;
69991;SDS011;57332;51.320;-0.580;2023-07-16T02:03:08;10.25;;;2.33;;
69991;SDS011;57332;51.320;-0.580;2023-07-16T02:05:35;10.35;;;2.13;;
69991;SDS011;57332;51.320;-0.580;2023-07-16T02:08:02;6.13;;;2.05;;
69991;SDS011;57332;51.320;-0.580;2023-07-16T02:10:29;7.28;;;2.30;;
69991;SDS011;57332;51.320;-0.580;2023-07-16T02:12:56;11.50;;;2.05;;
69991;SDS011;57332;51.320;-0.580;2023-07-16T02:15:23;9.23;;;2.40;;
69991;SDS011;57332;51.320;-0.580;2023-07-16T02:17:50;9.82;;;2.30;;
69991;SDS011;57332;51.320;-0.580;2023-07-16T02:20:17;12.07;;;2.63;;
69991;SDS011;57332;51.320;-0.580;2023-07-16T02:22:44;9.63;;;2.63;;
69991;SDS011;57332;51.320;-0.580;2023-07-16T02:25:11;9.30;;;2.30;;
69991;SDS011;57332;51.320;-0.580;2023-07-16T02:27:37;7.60;;;1.98;;
69991;SDS011;57332;51.320;-0.580;2023-07-16T02:30:05;9.55;;;2.38;;
69991;SDS011;57332;51.320;-0.580;2023-07-16T02:32:33;10.60;;;2.17;;
69991;SDS011;57332;51.320;-0.580;2023-07-16T02:35:00;11.32;;;2.28;;
69991;SDS011;57332;51.320;-0.580;2023-07-16T02:37:27;8.07;;;2.05;;
69991;SDS011;57332;51.320;-0.580;2023-07-16T02:39:54;11.88;;;2.55;;
69991;SDS011;57332;51.320;-0.580;2023-07-16T02:42:23;8.75;;;2.20;;
69991;SDS011;57332;51.320;-0.580;2023-07-16T02:44:50;9.68;;;2.20;;
69991;SDS011;57332;51.320;-0.580;2023-07-16T02:47:17;9.63;;;2.38;;
69991;SDS011;57332;51.320;-0.580;2023-07-16T02:49:44;8.73;;;2.38;;
69991;SDS011;57332;51.320;-0.580;2023-07-16T02:52:11;11.02;;;2.30;;
69991;SDS011;57332;51.320;-0.580;2023-07-16T02:54:38;8.13;;;1.80;;
69991;SDS011;57332;51.320;-0.580;2023-07-16T02:57:05;9.32;;;2.17;;
69991;SDS011;57332;51.320;-0.580;2023-07-16T02:59:32;11.18;;;2.55;;
69991;SDS011;57332;51.320;-0.580;2023-07-16T03:01:59;8.32;;;2.42;;
69991;SDS011;57332;51.320;-0.580;2023-07-16T03:04:26;10.13;;;2.60;;
69991;SDS011;57332;51.320;-0.580;2023-07-16T03:06:53;7.85;;;2.15;;
69991;SDS011;57332;51.320;-0.580;2023-07-16T03:09:20;7.95;;;1.90;;
69991;SDS011;57332;51.320;-0.580;2023-07-16T03:11:47;13.70;;;2.78;;
69991;SDS011;57332;51.320;-0.580;2023-07-16T03:14:14;13.13;;;2.30;;
69991;SDS011;57332;51.320;-0.580;2023-07-16T03:16:40;8.90;;;2.33;;
69991;SDS011;57332;51.320;-0.580;2023-07-16T03:19:07;11.48;;;2.53;;
69991;SDS011;57332;51.320;-0.580;2023-07-16T03:21:34;8.60;;;2.08;;
69991;SDS011;57332;51.320;-0.580;2023-07-16T03:24:01;9.32;;;2.50;;
69991;SDS011;57332;51.320;-0.580;2023-07-16T03:26:28;12.50;;;3.03;;
69991;SDS011;57332;51.320;-0.580;2023-07-16T03:28:55;10.10;;;2.40;;
69991;SDS011;57332;51.320;-0.580;2023-07-16T03:31:22;10.05;;;2.10;;
69991;SDS011;57332;51.320;-0.580;2023-07-16T03:33:49;9.68;;;2.30;;
69991;SDS011;57332;51.320;-0.580;2023-07-16T03:36:16;8.73;;;1.90;;
69991;SDS011;57332;51.320;-0.580;2023-07-16T03:38:44;10.25;;;1.98;;
69991;SDS011;57332;51.320;-0.580;2023-07-16T03:41:11;8.80;;;2.15;;
69991;SDS011;57332;51.320;-0.580;2023-07-16T03:43:37;8.63;;;1.98;;
69991;SDS011;57332;51.320;-0.580;2023-07-16T03:46:04;9.07;;;2.10;;
69991;SDS011;57332;51.320;-0.580;2023-07-16T03:48:34;9.93;;;2.30;;
69991;SDS011;57332;51.320;-0.580;2023-07-16T03:51:01;9.65;;;2.17;;
69991;SDS011;57332;51.320;-0.580;2023-07-16T03:53:28;10.60;;;1.75;;
69991;SDS011;57332;51.320;-0.580;2023-07-16T03:55:55;11.45;;;1.90;;
69991;SDS011;57332;51.320;-0.580;2023-07-16T03:58:22;9.30;;;2.20;;
69991;SDS011;57332;51.320;-0.580;2023-07-16T04:00:50;12.98;;;2.25;;
69991;SDS011;57332;51.320;-0.580;2023-07-16T04:03:17;8.55;;;2.10;;
69991;SDS011;57332;51.320;-0.580;2023-07-16T04:05:44;11.10;;;2.05;;
69991;SDS011;57332;51.320;-0.580;2023-07-16T04:08:11;11.40;;;2.33;;
69991;SDS011;57332;51.320;-0.580;2023-07-16T04:10:38;8.23;;;1.90;;
69991;SDS011;57332;51.320;-0.580;2023-07-16T04:13:05;8.88;;;2.22;;
69991;SDS011;57332;51.320;-0.580;2023-07-16T04:15:32;8.05;;;1.92;;
69991;SDS011;57332;51.320;-0.580;2023-07-16T04:17:58;12.32;;;2.35;;
69991;SDS011;57332;51.320;-0.580;2023-07-16T04:20:26;7.30;;;2.00;;
69991;SDS011;57332;51.320;-0.580;2023-07-16T04:22:53;9.07;;;2.00;;
69991;SDS011;57332;51.320;-0.580;2023-07-16T04:25:19;9.95;;;1.95;;
69991;SDS011;57332;51.320;-0.580;2023-07-16T04:27:47;14.05;;;1.80;;
69991;SDS011;57332;51.320;-0.580;2023-07-16T04:30:14;9.98;;;2.45;;
69991;SDS011;57332;51.320;-0.580;2023-07-16T04:32:41;8.13;;;1.77;;
69991;SDS011;57332;51.320;-0.580;2023-07-16T04:35:08;7.00;;;2.13;;
69991;SDS011;57332;51.320;-0.580;2023-07-16T04:37:35;11.18;;;2.00;;
69991;SDS011;57332;51.320;-0.580;2023-07-16T04:40:02;9.63;;;1.73;;
69991;SDS011;57332;51.320;-0.580;2023-07-16T04:42:31;8.68;;;2.08;;
69991;SDS011;57332;51.320;-0.580;2023-07-16T04:44:57;10.82;;;1.80;;
69991;SDS011;57332;51.320;-0.580;2023-07-16T04:47:24;8.93;;;1.92;;
69991;SDS011;57332;51.320;-0.580;2023-07-16T04:49:51;12.00;;;2.10;;
69991;SDS011;57332;51.320;-0.580;2023-07-16T04:52:18;8.60;;;1.70;;
69991;SDS011;57332;51.320;-0.580;2023-07-16T04:54:45;10.55;;;2.00;;
69991;SDS011;57332;51.320;-0.580;2023-07-16T04:57:12;9.02;;;2.08;;
69991;SDS011;57332;51.320;-0.580;2023-07-16T04:59:39;8.50;;;1.85;;
69991;SDS011;57332;51.320;-0.580;2023-07-16T05:02:06;6.63;;;2.20;;
69991;SDS011;57332;51.320;-0.580;2023-07-16T05:04:34;8.45;;;1.60;;
69991;SDS011;57332;51.320;-0.580;2023-07-16T05:07:04;9.32;;;2.17;;
69991;SDS011;57332;51.320;-0.580;2023-07-16T05:09:31;8.32;;;2.08;;
69991;SDS011;57332;51.320;-0.580;2023-07-16T05:11:58;8.55;;;1.83;;
69991;SDS011;57332;51.320;-0.580;2023-07-16T05:14:25;9.52;;;1.80;;
69991;SDS011;57332;51.320;-0.580;2023-07-16T05:16:52;9.57;;;2.20;;
69991;SDS011;57332;51.320;-0.580;2023-07-16T05:19:19;13.25;;;2.22;;
69991;SDS011;57332;51.320;-0.580;2023-07-16T05:21:46;9.63;;;1.80;;
69991;SDS011;57332;51.320;-0.580;2023-07-16T05:24:13;10.00;;;2.40;;
69991;SDS011;57332;51.320;-0.580;2023-07-16T05:26:40;8.27;;;1.80;;
69991;SDS011;57332;51.320;-0.580;2023-07-16T05:29:07;9.10;;;1.98;;
69991;SDS011;57332;51.320;-0.580;2023-07-16T05:31:34;6.50;;;1.77;;
69991;SDS011;57332;51.320;-0.580;2023-07-16T05:34:01;7.85;;;1.83;;
69991;SDS011;57332;51.320;-0.580;2023-07-16T05:36:28;7.32;;;1.80;;
69991;SDS011;57332;51.320;-0.580;2023-07-16T05:38:55;12.82;;;2.25;;
69991;SDS011;57332;51.320;-0.580;2023-07-16T05:41:21;5.70;;;1.75;;
69991;SDS011;57332;51.320;-0.580;2023-07-16T05:43:50;9.05;;;2.20;;
69991;SDS011;57332;51.320;-0.580;2023-07-16T05:46:16;8.35;;;2.03;;
69991;SDS011;57332;51.320;-0.580;2023-07-16T05:48:44;9.70;;;2.10;;
69991;SDS011;57332;51.320;-0.580;2023-07-16T05:51:11;7.40;;;1.58;;
69991;SDS011;57332;51.320;-0.580;2023-07-16T05:53:38;8.20;;;1.45;;
69991;SDS011;57332;51.320;-0.580;2023-07-16T05:56:05;5.95;;;1.83;;
69991;SDS011;57332;51.320;-0.580;2023-07-16T05:58:32;5.70;;;1.75;;
69991;SDS011;57332;51.320;-0.580;2023-07-16T06:00:59;8.55;;;2.00;;
69991;SDS011;57332;51.320;-0.580;2023-07-16T06:03:25;4.82;;;1.30;;
69991;SDS011;57332;51.320;-0.580;2023-07-16T06:05:52;10.30;;;1.80;;
69991;SDS011;57332;51.320;-0.580;2023-07-16T06:08:20;7.50;;;1.67;;
69991;SDS011;57332;51.320;-0.580;2023-07-16T06:10:47;7.95;;;1.70;;
69991;SDS011;57332;51.320;-0.580;2023-07-16T06:13:14;9.00;;;1.80;;
69991;SDS011;57332;51.320;-0.580;2023-07-16T06:15:41;6.25;;;1.52;;
69991;SDS011;57332;51.320;-0.580;2023-07-16T06:18:08;7.93;;;1.80;;
69991;SDS011;57332;51.320;-0.580;2023-07-16T06:20:35;6.15;;;1.30;;
69991;SDS011;57332;51.320;-0.580;2023-07-16T06:23:02;7.68;;;1.52;;
69991;SDS011;57332;51.320;-0.580;2023-07-16T06:25:29;5.80;;;1.67;;
69991;SDS011;57332;51.320;-0.580;2023-07-16T06:27:56;7.18;;;1.23;;
69991;SDS011;57332;51.320;-0.580;2023-07-16T06:30:23;10.00;;;1.85;;
69991;SDS011;57332;51.320;-0.580;2023-07-16T06:32:50;7.53;;;1.63;;
69991;SDS011;57332;51.320;-0.580;2023-07-16T06:35:17;6.53;;;1.80;;
69991;SDS011;57332;51.320;-0.580;2023-07-16T06:37:44;8.13;;;1.55;;
69991;SDS011;57332;51.320;-0.580;2023-07-16T06:40:11;7.30;;;1.70;;
69991;SDS011;57332;51.320;-0.580;2023-07-16T06:42:38;5.93;;;1.58;;
69991;SDS011;57332;51.320;-0.580;2023-07-16T06:45:05;7.25;;;1.65;;
69991;SDS011;57332;51.320;-0.580;2023-07-16T06:47:32;8.38;;;1.55;;
69991;SDS011;57332;51.320;-0.580;2023-07-16T06:49:59;5.70;;;1.30;;
69991;SDS011;57332;51.320;-0.580;2023-07-16T06:52:26;8.00;;;1.40;;
69991;SDS011;57332;51.320;-0.580;2023-07-16T06:54:54;5.35;;;1.50;;
69991;SDS011;57332;51.320;-0.580;2023-07-16T06:57:22;4.55;;;1.48;;
69991;SDS011;57332;51.320;-0.580;2023-07-16T06:59:49;9.85;;;1.85;;
69991;SDS011;57332;51.320;-0.580;2023-07-16T07:02:16;7.45;;;1.67;;
69991;SDS011;57332;51.320;-0.580;2023-07-16T07:04:43;7.63;;;1.40;;
69991;SDS011;57332;51.320;-0.580;2023-07-16T07:07:10;3.92;;;1.50;;
69991;SDS011;57332;51.320;-0.580;2023-07-16T07:09:37;9.63;;;1.48;;
69991;SDS011;57332;51.320;-0.580;2023-07-16T07:12:04;7.55;;;1.60;;
69991;SDS011;57332;51.320;-0.580;2023-07-16T07:14:32;10.20;;;1.75;;
69991;SDS011;57332;51.320;-0.580;2023-07-16T07:16:59;7.13;;;1.58;;
69991;SDS011;57332;51.320;-0.580;2023-07-16T07:19:26;7.68;;;1.40;;
69991;SDS011;57332;51.320;-0.580;2023-07-16T07:21:53;5.25;;;1.60;;
69991;SDS011;57332;51.320;-0.580;2023-07-16T07:24:20;8.00;;;1.42;;
69991;SDS011;57332;51.320;-0.580;2023-07-16T07:26:47;4.60;;;1.38;;
69991;SDS011;57332;51.320;-0.580;2023-07-16T07:29:14;8.00;;;1.52;;
69991;SDS011;57332;51.320;-0.580;2023-07-16T07:31:41;6.55;;;1.52;;
69991;SDS011;57332;51.320;-0.580;2023-07-16T07:34:08;6.68;;;1.30;;
69991;SDS011;57332;51.320;-0.580;2023-07-16T07:36:35;5.13;;;1.50;;
69991;SDS011;57332;51.320;-0.580;2023-07-16T07:39:02;5.90;;;1.30;;
69991;SDS011;57332;51.320;-0.580;2023-07-16T07:41:29;7.28;;;1.83;;
69991;SDS011;57332;51.320;-0.580;2023-07-16T07:43:56;6.00;;;1.70;;
69991;SDS011;57332;51.320;-0.580;2023-07-16T07:46:23;8.10;;;1.60;;
69991;SDS011;57332;51.320;-0.580;2023-07-16T07:48:50;5.65;;;1.10;;
69991;SDS011;57332;51.320;-0.580;2023-07-16T07:51:17;8.23;;;2.00;;
69991;SDS011;57332;51.320;-0.580;2023-07-16T07:53:43;5.85;;;1.35;;
69991;SDS011;57332;51.320;-0.580;2023-07-16T07:56:10;5.05;;;1.30;;
69991;SDS011;57332;51.320;-0.580;2023-07-16T07:58:37;6.43;;;1.42;;
69991;SDS011;57332;51.320;-0.580;2023-07-16T08:01:07;3.90;;;0.98;;
69991;SDS011;57332;51.320;-0.580;2023-07-16T08:03:34;5.07;;;1.20;;
69991;SDS011;57332;51.320;-0.580;2023-07-16T08:06:02;5.75;;;1.25;;
69991;SDS011;57332;51.320;-0.580;2023-07-16T08:08:29;10.85;;;1.65;;
69991;SDS011;57332;51.320;-0.580;2023-07-16T08:10:56;5.93;;;1.38;;
69991;SDS011;57332;51.320;-0.580;2023-07-16T08:13:23;5.63;;;1.30;;
69991;SDS011;57332;51.320;-0.580;2023-07-16T08:15:50;5.25;;;1.30;;
69991;SDS011;57332;51.320;-0.580;2023-07-16T08:18:17;7.20;;;1.60;;
69991;SDS011;57332;51.320;-0.580;2023-07-16T08:20:44;5.97;;;1.70;;
69991;SDS011;57332;51.320;-0.580;2023-07-16T08:23:11;4.18;;;1.00;;
69991;SDS011;57332;51.320;-0.580;2023-07-16T08:25:38;5.95;;;1.17;;
69991;SDS011;57332;51.320;-0.580;2023-07-16T08:28:05;5.45;;;1.00;;
69991;SDS011;57332;51.320;-0.580;2023-07-16T08:30:34;6.60;;;1.17;;
69991;SDS011;57332;51.320;-0.580;2023-07-16T08:33:01;3.85;;;1.00;;
69991;SDS011;57332;51.320;-0.580;2023-07-16T08:35:28;4.43;;;1.23;;
69991;SDS011;57332;51.320;-0.580;2023-07-16T08:37:55;8.00;;;1.50;;
69991;SDS011;57332;51.320;-0.580;2023-07-16T08:40:21;6.15;;;1.17;;
69991;SDS011;57332;51.320;-0.580;2023-07-16T08:42:48;4.40;;;1.00;;
69991;SDS011;57332;51.320;-0.580;2023-07-16T08:45:15;3.55;;;0.90;;
69991;SDS011;57332;51.320;-0.580;2023-07-16T08:47:48;5.28;;;1.10;;
69991;SDS011;57332;51.320;-0.580;2023-07-16T08:50:15;3.38;;;1.10;;
69991;SDS011;57332;51.320;-0.580;2023-07-16T08:52:43;5.03;;;1.10;;
69991;SDS011;57332;51.320;-0.580;2023-07-16T08:55:10;5.15;;;0.93;;
69991;SDS011;57332;51.320;-0.580;2023-07-16T08:57:38;4.85;;;1.00;;
69991;SDS011;57332;51.320;-0.580;2023-07-16T09:00:06;3.53;;;0.80;;
69991;SDS011;57332;51.320;-0.580;2023-07-16T09:02:33;4.97;;;0.90;;
69991;SDS011;57332;51.320;-0.580;2023-07-16T09:05:00;2.38;;;0.80;;
69991;SDS011;57332;51.320;-0.580;2023-07-16T09:07:27;5.03;;;1.02;;
69991;SDS011;57332;51.320;-0.580;2023-07-16T09:09:55;4.70;;;0.98;;
69991;SDS011;57332;51.320;-0.580;2023-07-16T09:12:24;3.80;;;0.90;;
69991;SDS011;57332;51.320;-0.580;2023-07-16T09:14:51;6.70;;;1.52;;
69991;SDS011;57332;51.320;-0.580;2023-07-16T09:17:21;4.05;;;0.90;;
69991;SDS011;57332;51.320;-0.580;2023-07-16T09:19:50;3.80;;;1.10;;
69991;SDS011;57332;51.320;-0.580;2023-07-16T09:22:19;3.92;;;1.10;;
69991;SDS011;57332;51.320;-0.580;2023-07-16T09:24:47;4.63;;;0.85;;
69991;SDS011;57332;51.320;-0.580;2023-07-16T09:27:14;4.68;;;0.93;;
69991;SDS011;57332;51.320;-0.580;2023-07-16T09:29:41;2.50;;;1.00;;
69991;SDS011;57332;51.320;-0.580;2023-07-16T09:32:08;4.63;;;0.98;;
69991;SDS011;57332;51.320;-0.580;2023-07-16T09:34:35;5.93;;;0.93;;
69991;SDS011;57332;51.320;-0.580;2023-07-16T09:37:04;4.90;;;1.10;;
69991;SDS011;57332;51.320;-0.580;2023-07-16T09:39:31;5.50;;;1.23;;
69991;SDS011;57332;51.320;-0.580;2023-07-16T09:41:58;2.63;;;0.77;;
69991;SDS011;57332;51.320;-0.580;2023-07-16T09:44:25;4.10;;;1.00;;
69991;SDS011;57332;51.320;-0.580;2023-07-16T09:46:52;4.32;;;1.08;;
69991;SDS011;57332;51.320;-0.580;2023-07-16T09:49:19;3.05;;;0.95;;
69991;SDS011;57332;51.320;-0.580;2023-07-16T09:51:46;5.68;;;0.90;;
69991;SDS011;57332;51.320;-0.580;2023-07-16T09:54:14;3.70;;;1.15;;
69991;SDS011;57332;51.320;-0.580;2023-07-16T09:56:45;3.60;;;1.00;;
69991;SDS011;57332;51.320;-0.580;2023-07-16T09:59:14;3.10;;;0.80;;
69991;SDS011;57332;51.320;-0.580;2023-07-16T10:01:42;4.63;;;1.00;;
69991;SDS011;57332;51.320;-0.580;2023-07-16T10:04:13;2.85;;;0.75;;
69991;SDS011;57332;51.320;-0.580;2023-07-16T10:06:53;3.08;;;0.73;;
69991;SDS011;57332;51.320;-0.580;2023-07-16T10:14:49;3.42;;;1.10;;
69991;SDS011;57332;51.320;-0.580;2023-07-16T10:17:17;3.75;;;1.00;;
69991;SDS011;57332;51.320;-0.580;2023-07-16T10:19:57;4.93;;;1.00;;
69991;SDS011;57332;51.320;-0.580;2023-07-16T10:22:34;3.85;;;1.00;;
69991;SDS011;57332;51.320;-0.580;2023-07-16T10:25:01;2.63;;;0.90;;
69991;SDS011;57332;51.320;-0.580;2023-07-16T10:27:29;5.25;;;1.30;;
69991;SDS011;57332;51.320;-0.580;2023-07-16T10:29:57;2.92;;;0.90;;
69991;SDS011;57332;51.320;-0.580;2023-07-16T10:32:26;4.55;;;1.30;;
69991;SDS011;57332;51.320;-0.580;2023-07-16T10:34:53;3.53;;;0.90;;
69991;SDS011;57332;51.320;-0.580;2023-07-16T10:37:20;3.50;;;0.95;;
69991;SDS011;57332;51.320;-0.580;2023-07-16T10:39:48;3.78;;;0.82;;
69991;SDS011;57332;51.320;-0.580;2023-07-16T10:42:16;4.90;;;1.52;;
69991;SDS011;57332;51.320;-0.580;2023-07-16T10:44:43;4.95;;;1.00;;
69991;SDS011;57332;51.320;-0.580;2023-07-16T10:47:20;6.45;;;1.38;;
69991;SDS011;57332;51.320;-0.580;2023-07-16T10:52:14;4.88;;;1.05;;
69991;SDS011;57332;51.320;-0.580;2023-07-16T10:54:41;3.17;;;0.93;;
69991;SDS011;57332;51.320;-0.580;2023-07-16T10:57:09;5.60;;;1.17;;
69991;SDS011;57332;51.320;-0.580;2023-07-16T10:59:37;3.83;;;0.90;;
69991;SDS011;57332;51.320;-0.580;2023-07-16T11:02:05;2.65;;;0.82;;
69991;SDS011;57332;51.320;-0.580;2023-07-16T11:04:38;5.28;;;1.10;;
69991;SDS011;57332;51.320;-0.580;2023-07-16T11:07:09;3.03;;;0.90;;
69991;SDS011;57332;51.320;-0.580;2023-07-16T11:09:43;3.08;;;0.75;;
69991;SDS011;57332;51.320;-0.580;2023-07-16T11:12:14;3.30;;;0.80;;
69991;SDS011;57332;51.320;-0.580;2023-07-16T11:14:48;3.13;;;1.00;;
69991;SDS011;57332;51.320;-0.580;2023-07-16T11:17:15;4.32;;;0.80;;
69991;SDS011;57332;51.320;-0.580;2023-07-16T11:19:48;4.07;;;0.88;;
69991;SDS011;57332;51.320;-0.580;2023-07-16T11:22:15;5.45;;;1.27;;
69991;SDS011;57332;51.320;-0.580;2023-07-16T11:24:44;6.40;;;1.33;;
69991;SDS011;57332;51.320;-0.580;2023-07-16T11:27:18;3.38;;;1.20;;
69991;SDS011;57332;51.320;-0.580;2023-07-16T11:29:48;4.10;;;1.35;;
69991;SDS011;57332;51.320;-0.580;2023-07-16T11:34:55;3.35;;;0.93;;
69991;SDS011;57332;51.320;-0.580;2023-07-16T11:37:22;4.35;;;1.10;;
69991;SDS011;57332;51.320;-0.580;2023-07-16T11:39:51;4.22;;;1.15;;
69991;SDS011;57332;51.320;-0.580;2023-07-16T11:42:27;7.22;;;1.20;;
69991;SDS011;57332;51.320;-0.580;2023-07-16T11:44:55;4.20;;;1.00;;
69991;SDS011;57332;51.320;-0.580;2023-07-16T11:47:22;3.13;;;1.20;;
69991;SDS011;57332;51.320;-0.580;2023-07-16T11:49:49;4.75;;;1.10;;
69991;SDS011;57332;51.320;-0.580;2023-07-16T11:52:34;6.63;;;1.15;;
69991;SDS011;57332;51.320;-0.580;2023-07-16T11:55:01;5.78;;;1.30;;
69991;SDS011;57332;51.320;-0.580;2023-07-16T11:57:30;7.38;;;1.15;;
69991;SDS011;57332;51.320;-0.580;2023-07-16T11:59:57;8.57;;;2.05;;
69991;SDS011;57332;51.320;-0.580;2023-07-16T12:02:25;6.88;;;1.50;;
69991;SDS011;57332;51.320;-0.580;2023-07-16T12:04:52;5.25;;;1.30;;
69991;SDS011;57332;51.320;-0.580;2023-07-16T12:07:31;4.38;;;1.33;;
69991;SDS011;57332;51.320;-0.580;2023-07-16T12:10:00;5.47;;;1.40;;
69991;SDS011;57332;51.320;-0.580;2023-07-16T12:12:27;5.93;;;1.27;;
69991;SDS011;57332;51.320;-0.580;2023-07-16T12:14:54;4.60;;;1.33;;
69991;SDS011;57332;51.320;-0.580;2023-07-16T12:17:21;5.22;;;1.40;;
69991;SDS011;57332;51.320;-0.580;2023-07-16T12:19:48;3.55;;;1.08;;
69991;SDS011;57332;51.320;-0.580;2023-07-16T12:22:16;5.68;;;1.35;;
69991;SDS011;57332;51.320;-0.580;2023-07-16T12:24:44;5.72;;;1.20;;
69991;SDS011;57332;51.320;-0.580;2023-07-16T12:27:11;7.25;;;1.52;;
69991;SDS011;57332;51.320;-0.580;2023-07-16T12:29:38;4.72;;;0.90;;
69991;SDS011;57332;51.320;-0.580;2023-07-16T12:32:05;6.65;;;1.40;;
69991;SDS011;57332;51.320;-0.580;2023-07-16T12:34:33;5.03;;;1.08;;
69991;SDS011;57332;51.320;-0.580;2023-07-16T12:37:00;6.43;;;1.40;;
69991;SDS011;57332;51.320;-0.580;2023-07-16T12:39:28;5.85;;;1.13;;
69991;SDS011;57332;51.320;-0.580;2023-07-16T12:41:54;4.35;;;1.30;;
69991;SDS011;57332;51.320;-0.580;2023-07-16T12:44:21;5.93;;;1.30;;
69991;SDS011;57332;51.320;-0.580;2023-07-16T12:46:48;4.32;;;1.23;;
69991;SDS011;57332;51.320;-0.580;2023-07-16T12:49:15;5.10;;;1.48;;
69991;SDS011;57332;51.320;-0.580;2023-07-16T12:51:42;5.22;;;1.17;;
69991;SDS011;57332;51.320;-0.580;2023-07-16T12:54:09;6.75;;;1.58;;
69991;SDS011;57332;51.320;-0.580;2023-07-16T12:56:36;6.30;;;1.90;;
69991;SDS011;57332;51.320;-0.580;2023-07-16T12:59:03;5.10;;;1.55;;
69991;SDS011;57332;51.320;-0.580;2023-07-16T13:01:30;7.82;;;1.95;;
69991;SDS011;57332;51.320;-0.580;2023-07-16T13:03:57;5.05;;;1.20;;
69991;SDS011;57332;51.320;-0.580;2023-07-16T13:06:24;4.57;;;1.17;;
69991;SDS011;57332;51.320;-0.580;2023-07-16T13:08:51;6.65;;;1.50;;
69991;SDS011;57332;51.320;-0.580;2023-07-16T13:11:18;5.35;;;1.50;;
69991;SDS011;57332;51.320;-0.580;2023-07-16T13:13:45;4.30;;;0.98;;
69991;SDS011;57332;51.320;-0.580;2023-07-16T13:16:12;7.32;;;1.30;;
69991;SDS011;57332;51.320;-0.580;2023-07-16T13:18:39;5.55;;;1.30;;
69991;SDS011;57332;51.320;-0.580;2023-07-16T13:21:06;5.65;;;1.40;;
69991;SDS011;57332;51.320;-0.580;2023-07-16T13:23:33;5.57;;;1.20;;
69991;SDS011;57332;51.320;-0.580;2023-07-16T13:26:00;3.90;;;1.40;;
69991;SDS011;57332;51.320;-0.580;2023-07-16T13:28:27;5.95;;;1.25;;
69991;SDS011;57332;51.320;-0.580;2023-07-16T13:30:53;3.85;;;1.13;;
69991;SDS011;57332;51.320;-0.580;2023-07-16T13:33:20;5.10;;;1.58;;
69991;SDS011;57332;51.320;-0.580;2023-07-16T13:35:48;4.82;;;1.27;;
69991;SDS011;57332;51.320;-0.580;2023-07-16T13:38:15;6.97;;;1.50;;
69991;SDS011;57332;51.320;-0.580;2023-07-16T13:40:42;5.82;;;1.40;;
69991;SDS011;57332;51.320;-0.580;2023-07-16T13:43:09;4.05;;;1.10;;
69991;SDS011;57332;51.320;-0.580;2023-07-16T13:45:36;4.72;;;1.05;;
69991;SDS011;57332;51.320;-0.580;2023-07-16T13:48:03;5.78;;;1.20;;
69991;SDS011;57332;51.320;-0.580;2023-07-16T13:50:30;5.15;;;1.42;;
69991;SDS011;57332;51.320;-0.580;2023-07-16T13:52:57;6.65;;;1.50;;
69991;SDS011;57332;51.320;-0.580;2023-07-16T13:55:28;3.75;;;1.00;;
69991;SDS011;57332;51.320;-0.580;2023-07-16T13:57:55;2.65;;;0.90;;
69991;SDS011;57332;51.320;-0.580;2023-07-16T14:00:22;6.90;;;1.55;;
69991;SDS011;57332;51.320;-0.580;2023-07-16T14:02:49;6.35;;;1.50;;
69991;SDS011;57332;51.320;-0.580;2023-07-16T14:05:16;7.72;;;1.40;;
69991;SDS011;57332;51.320;-0.580;2023-07-16T14:07:43;3.08;;;1.00;;
69991;SDS011;57332;51.320;-0.580;2023-07-16T14:10:10;6.13;;;1.23;;
69991;SDS011;57332;51.320;-0.580;2023-07-16T14:12:37;4.78;;;1.48;;
69991;SDS011;57332;51.320;-0.580;2023-07-16T14:15:04;4.53;;;1.40;;
69991;SDS011;57332;51.320;-0.580;2023-07-16T14:17:31;4.25;;;1.35;;
69991;SDS011;57332;51.320;-0.580;2023-07-16T14:19:58;3.88;;;1.23;;
69991;SDS011;57332;51.320;-0.580;2023-07-16T14:22:25;3.60;;;1.10;;
69991;SDS011;57332;51.320;-0.580;2023-07-16T14:24:54;5.75;;;1.27;;
69991;SDS011;57332;51.320;-0.580;2023-07-16T14:27:21;6.57;;;1.20;;
69991;SDS011;57332;51.320;-0.580;2023-07-16T14:29:49;9.02;;;1.60;;
69991;SDS011;57332;51.320;-0.580;2023-07-16T14:32:31;7.22;;;1.17;;
69991;SDS011;57332;51.320;-0.580;2023-07-16T14:34:59;4.53;;;1.15;;
69991;SDS011;57332;51.320;-0.580;2023-07-16T14:37:27;6.18;;;1.23;;
69991;SDS011;57332;51.320;-0.580;2023-07-16T14:39:53;5.38;;;1.10;;
69991;SDS011;57332;51.320;-0.580;2023-07-16T14:42:20;3.45;;;1.38;;
69991;SDS011;57332;51.320;-0.580;2023-07-16T14:44:47;4.18;;;1.50;;
69991;SDS011;57332;51.320;-0.580;2023-07-16T14:47:14;6.03;;;1.15;;
69991;SDS011;57332;51.320;-0.580;2023-07-16T14:49:42;4.22;;;1.10;;
69991;SDS011;57332;51.320;-0.580;2023-07-16T14:52:08;5.55;;;1.13;;
69991;SDS011;57332;51.320;-0.580;2023-07-16T14:54:35;3.70;;;1.27;;